createdAt,value
2023-04-15T00:00:59.341Z,8.24
2023-04-15T00:03:26.023Z,8.21
2023-04-15T00:05:52.733Z,8.21
2023-04-15T00:08:20.391Z,8.16
2023-04-15T00:10:46.948Z,8.16
2023-04-15T00:13:13.472Z,8.14
2023-04-15T00:15:39.971Z,8.09
2023-04-15T00:18:07.947Z,8.08
2023-04-15T00:20:34.822Z,8.11
2023-04-15T00:23:02.547Z,8.09
2023-04-15T00:25:29.118Z,8.09
2023-04-15T00:27:55.600Z,8.04
2023-04-15T00:30:23.925Z,7.97
2023-04-15T00:32:50.786Z,7.91
2023-04-15T00:35:21.591Z,7.81
2023-04-15T00:37:48.294Z,7.71
2023-04-15T00:40:18.702Z,7.71
2023-04-15T00:42:45.501Z,7.72
2023-04-15T00:45:12.260Z,7.71
2023-04-15T00:47:41.455Z,7.67
2023-04-15T00:50:08.680Z,7.64
2023-04-15T00:52:35.116Z,7.60
2023-04-15T00:55:02.392Z,7.55
2023-04-15T00:57:30.109Z,7.50
2023-04-15T00:59:57.579Z,7.44
2023-04-15T01:02:24.574Z,7.40
2023-04-15T01:04:51.361Z,7.37
2023-04-15T01:07:18.004Z,7.34
2023-04-15T01:09:45.648Z,7.31
2023-04-15T01:12:14.181Z,7.29
2023-04-15T01:14:41.085Z,7.27
2023-04-15T01:17:07.507Z,7.23
2023-04-15T01:19:34.026Z,7.21
2023-04-15T01:22:00.529Z,7.21
2023-04-15T01:24:28.202Z,7.19
2023-04-15T01:26:54.855Z,7.17
2023-04-15T01:29:23.760Z,7.13
2023-04-15T01:31:52.563Z,7.12
2023-04-15T01:34:19.339Z,7.13
2023-04-15T01:36:46.295Z,7.13
2023-04-15T01:39:14.160Z,7.12
2023-04-15T01:41:42.240Z,7.08
2023-04-15T01:44:08.856Z,7.07
2023-04-15T01:46:37.136Z,7.05
2023-04-15T01:49:03.637Z,7.02
2023-04-15T01:51:32.224Z,6.97
2023-04-15T01:53:59.099Z,6.93
2023-04-15T01:56:25.627Z,6.92
2023-04-15T01:58:52.901Z,6.90
2023-04-15T02:01:20.099Z,6.85
2023-04-15T02:03:47.909Z,6.80
2023-04-15T02:06:15.282Z,6.71
2023-04-15T02:08:41.857Z,6.68
2023-04-15T02:11:08.410Z,6.66
2023-04-15T02:13:34.942Z,6.63
2023-04-15T02:16:01.500Z,6.57
2023-04-15T02:18:28.220Z,6.54
2023-04-15T02:20:56.345Z,6.56
2023-04-15T02:23:22.744Z,6.56
2023-04-15T02:25:54.061Z,6.56
2023-04-15T02:28:21.756Z,6.53
2023-04-15T02:30:52.675Z,6.50
2023-04-15T02:33:19.565Z,6.49
2023-04-15T02:35:46.459Z,6.45
2023-04-15T02:38:14.290Z,6.39
2023-04-15T02:40:41.062Z,6.38
2023-04-15T02:43:07.535Z,6.36
2023-04-15T02:45:34.874Z,6.29
2023-04-15T02:48:06.300Z,6.25
2023-04-15T02:50:33.338Z,6.19
2023-04-15T02:53:01.543Z,6.09
2023-04-15T02:55:29.177Z,6.00
2023-04-15T02:57:55.977Z,5.92
2023-04-15T03:00:25.102Z,5.87
2023-04-15T03:02:56.376Z,5.80
2023-04-15T03:05:26.152Z,5.71
2023-04-15T03:07:53.208Z,5.68
2023-04-15T03:10:21.241Z,5.65
2023-04-15T03:12:48.223Z,5.63
2023-04-15T03:15:19.353Z,5.61
2023-04-15T03:17:49.722Z,5.57
2023-04-15T03:20:16.867Z,5.57
2023-04-15T03:22:43.465Z,5.56
2023-04-15T03:25:10.112Z,5.56
2023-04-15T03:27:38.403Z,5.54
2023-04-15T03:30:06.554Z,5.51
2023-04-15T03:32:35.524Z,5.49
2023-04-15T03:35:02.020Z,5.45
2023-04-15T03:37:28.462Z,5.43
2023-04-15T03:39:54.942Z,5.39
2023-04-15T03:42:21.385Z,5.36
2023-04-15T03:44:47.840Z,5.32
2023-04-15T03:47:14.342Z,5.29
2023-04-15T03:49:41.394Z,5.27
2023-04-15T03:52:07.892Z,5.21
2023-04-15T03:54:34.276Z,5.15
2023-04-15T03:57:01.293Z,5.09
2023-04-15T03:59:27.706Z,5.07
2023-04-15T04:01:54.199Z,5.03
2023-04-15T04:04:21.073Z,4.95
2023-04-15T04:06:47.585Z,4.91
2023-04-15T04:09:14.028Z,4.88
2023-04-15T04:11:40.497Z,4.83
2023-04-15T04:14:06.930Z,4.81
2023-04-15T04:16:33.394Z,4.78
2023-04-15T04:19:00.029Z,4.74
2023-04-15T04:21:26.732Z,4.72
2023-04-15T04:23:53.206Z,4.72
2023-04-15T04:26:19.828Z,4.69
2023-04-15T04:28:46.521Z,4.68
2023-04-15T04:31:12.949Z,4.65
2023-04-15T04:33:39.682Z,4.65
2023-04-15T04:36:06.393Z,4.62
2023-04-15T04:38:32.852Z,4.62
2023-04-15T04:40:59.407Z,4.60
2023-04-15T04:43:26.043Z,4.59
2023-04-15T04:45:52.521Z,4.57
2023-04-15T04:48:19.791Z,4.55
2023-04-15T04:50:47.044Z,4.53
2023-04-15T04:53:13.602Z,4.51
2023-04-15T04:55:40.011Z,4.51
2023-04-15T04:58:06.837Z,4.51
2023-04-15T05:00:33.566Z,4.54
2023-04-15T05:03:00.624Z,4.55
2023-04-15T05:05:27.354Z,4.55
2023-04-15T05:07:53.781Z,4.56
2023-04-15T05:10:20.482Z,4.60
2023-04-15T05:12:47.074Z,4.68
2023-04-15T05:15:13.581Z,4.72
2023-04-15T05:17:40.209Z,4.75
2023-04-15T05:20:07.440Z,4.82
2023-04-15T05:22:34.041Z,4.90
2023-04-15T05:25:00.919Z,4.98
2023-04-15T05:27:27.381Z,5.02
2023-04-15T05:29:53.774Z,5.04
2023-04-15T05:32:20.711Z,5.08
2023-04-15T05:34:48.672Z,5.13
2023-04-15T05:37:15.578Z,5.15
2023-04-15T05:39:43.028Z,5.21
2023-04-15T05:42:09.497Z,5.27
2023-04-15T05:44:36.115Z,5.32
2023-04-15T05:47:04.595Z,5.38
2023-04-15T05:49:31.120Z,5.43
2023-04-15T05:51:57.643Z,5.48
2023-04-15T05:54:24.269Z,5.52
2023-04-15T05:56:50.950Z,5.57
2023-04-15T05:59:17.369Z,5.65
2023-04-15T06:01:45.172Z,5.69
2023-04-15T06:04:12.168Z,5.73
2023-04-15T06:06:38.691Z,5.82
2023-04-15T06:09:05.264Z,5.90
2023-04-15T06:11:31.827Z,6.00
2023-04-15T06:13:58.297Z,6.15
2023-04-15T06:16:24.906Z,6.33
2023-04-15T06:18:51.350Z,6.54
2023-04-15T06:21:17.888Z,6.79
2023-04-15T06:23:44.359Z,6.98
2023-04-15T06:26:11.468Z,7.21
2023-04-15T06:28:38.002Z,7.48
2023-04-15T06:31:04.629Z,7.73
2023-04-15T06:33:31.900Z,8.43
2023-04-15T06:35:58.378Z,10.23
2023-04-15T06:38:24.854Z,11.21
2023-04-15T06:40:51.508Z,12.56
2023-04-15T06:43:20.191Z,13.46
2023-04-15T06:45:47.191Z,13.72
2023-04-15T06:48:13.832Z,14.24
2023-04-15T06:50:40.628Z,14.75
2023-04-15T06:53:07.495Z,15.25
2023-04-15T06:55:34.350Z,16.50
2023-04-15T06:58:00.900Z,18.68
2023-04-15T07:00:28.590Z,20.45
2023-04-15T07:02:55.662Z,22.13
2023-04-15T07:05:22.176Z,22.52
2023-04-15T07:07:48.601Z,22.35
2023-04-15T07:10:15.868Z,22.97
2023-04-15T07:12:42.426Z,23.02
2023-04-15T07:15:09.124Z,21.91
2023-04-15T07:17:35.643Z,20.43
2023-04-15T07:20:02.558Z,19.23
2023-04-15T07:22:30.027Z,18.28
2023-04-15T07:24:56.602Z,17.63
2023-04-15T07:27:23.146Z,17.61
2023-04-15T07:29:51.414Z,18.14
2023-04-15T07:32:18.197Z,19.38
2023-04-15T07:34:44.790Z,21.16
2023-04-15T07:37:11.446Z,23.06
2023-04-15T07:39:38.201Z,23.57
2023-04-15T07:42:05.039Z,24.26
2023-04-15T07:44:31.608Z,25.91
2023-04-15T07:46:58.096Z,26.89
2023-04-15T07:49:26.650Z,25.91
2023-04-15T07:51:53.263Z,24.90
2023-04-15T07:54:19.780Z,24.61
2023-04-15T07:56:46.180Z,24.27
2023-04-15T07:59:13.039Z,24.50
2023-04-15T08:01:39.540Z,24.65
2023-04-15T08:04:06.218Z,23.80
2023-04-15T08:06:33.270Z,22.95
2023-04-15T08:09:00.341Z,22.93
2023-04-15T08:11:28.656Z,23.35
2023-04-15T08:13:55.314Z,24.01
2023-04-15T08:16:27.697Z,23.32
2023-04-15T08:18:55.991Z,23.00
2023-04-15T08:21:22.814Z,22.61
2023-04-15T08:23:51.347Z,22.16
2023-04-15T08:26:18.836Z,21.70
2023-04-15T08:28:46.232Z,21.85
2023-04-15T08:31:14.793Z,22.95
2023-04-15T08:33:41.390Z,23.69
2023-04-15T08:36:08.483Z,22.73
2023-04-15T08:38:35.473Z,22.50
2023-04-15T08:41:07.308Z,22.46
2023-04-15T08:43:35.492Z,21.93
2023-04-15T08:46:02.263Z,21.14
2023-04-15T08:48:29.637Z,20.13
2023-04-15T08:50:56.853Z,19.88
2023-04-15T08:53:24.674Z,19.70
2023-04-15T08:55:57.236Z,19.45
2023-04-15T08:58:24.600Z,18.67
2023-04-15T09:00:51.127Z,19.05
2023-04-15T09:03:17.873Z,18.89
2023-04-15T09:05:44.903Z,19.45
2023-04-15T09:08:11.900Z,19.85
2023-04-15T09:10:38.423Z,20.53
2023-04-15T09:13:05.744Z,20.71
2023-04-15T09:15:33.071Z,21.00
2023-04-15T09:17:59.548Z,20.77
2023-04-15T09:20:26.342Z,21.35
2023-04-15T09:22:52.877Z,21.17
2023-04-15T09:25:30.026Z,20.73
2023-04-15T09:28:01.629Z,20.64
2023-04-15T09:30:29.535Z,20.49
2023-04-15T09:33:02.382Z,20.50
2023-04-15T09:35:29.079Z,20.92
2023-04-15T09:38:07.384Z,20.53
2023-04-15T09:40:41.043Z,19.71
2023-04-15T09:43:09.690Z,19.28
2023-04-15T09:45:36.535Z,19.06
2023-04-15T09:48:23.448Z,19.32
2023-04-15T09:50:50.455Z,19.26
2023-04-15T09:53:19.132Z,18.90
2023-04-15T09:55:46.894Z,18.48
2023-04-15T09:58:24.536Z,18.69
2023-04-15T10:00:52.427Z,18.13
2023-04-15T10:03:24.780Z,17.96
2023-04-15T10:05:57.432Z,17.65
2023-04-15T10:08:26.060Z,18.40
2023-04-15T10:10:53.608Z,19.36
2023-04-15T10:13:24.804Z,19.66
2023-04-15T10:16:10.833Z,19.48
2023-04-15T10:18:42.901Z,18.92
2023-04-15T10:21:10.211Z,19.68
2023-04-15T10:23:37.978Z,20.45
2023-04-15T10:26:07.057Z,20.29
2023-04-15T10:28:33.511Z,19.87
2023-04-15T10:31:00.623Z,20.15
2023-04-15T10:33:28.832Z,20.60
2023-04-15T10:35:55.930Z,20.87
2023-04-15T10:38:43.180Z,19.57
2023-04-15T10:41:14.275Z,19.71
2023-04-15T10:43:52.859Z,19.84
2023-04-15T10:46:40.417Z,18.89
2023-04-15T10:49:25.856Z,18.06
2023-04-15T10:51:57.670Z,17.82
2023-04-15T10:54:27.205Z,17.97
2023-04-15T10:57:10.475Z,18.21
2023-04-15T10:59:39.089Z,18.36
2023-04-15T11:02:07.422Z,17.72
2023-04-15T11:04:53.310Z,17.73
2023-04-15T11:07:41.958Z,18.62
2023-04-15T11:10:17.402Z,18.78
2023-04-15T11:12:50.811Z,18.90
2023-04-15T11:15:43.017Z,19.58
2023-04-15T11:18:18.492Z,19.13
2023-04-15T11:20:47.343Z,17.80
2023-04-15T11:23:19.561Z,17.22
2023-04-15T11:25:46.498Z,17.96
2023-04-15T11:28:13.544Z,18.49
2023-04-15T11:30:42.100Z,18.54
2023-04-15T11:33:10.347Z,18.01
2023-04-15T11:35:37.068Z,17.66
2023-04-15T11:38:10.292Z,17.72
2023-04-15T11:40:38.346Z,18.32
2023-04-15T11:43:13.780Z,17.67
2023-04-15T11:45:55.912Z,17.87
2023-04-15T11:48:28.229Z,18.49
2023-04-15T11:51:07.808Z,18.49
2023-04-15T11:53:42.598Z,18.14
2023-04-15T11:56:24.242Z,18.06
2023-04-15T11:58:59.352Z,18.24
2023-04-15T12:01:39.876Z,18.29
2023-04-15T12:04:20.173Z,18.99
2023-04-15T12:06:49.334Z,18.61
2023-04-15T12:09:16.666Z,18.34
2023-04-15T12:11:48.472Z,18.25
2023-04-15T12:14:24.419Z,17.47
2023-04-15T12:16:54.148Z,17.60
2023-04-15T12:19:31.805Z,17.88
2023-04-15T12:22:01.025Z,17.75
2023-04-15T12:24:28.355Z,17.31
2023-04-15T12:26:57.667Z,17.15
2023-04-15T12:29:29.040Z,16.76
2023-04-15T12:32:05.937Z,16.74
2023-04-15T12:34:58.173Z,16.20
2023-04-15T12:37:24.755Z,15.82
2023-04-15T12:39:52.236Z,15.97
2023-04-15T12:42:18.854Z,16.06
2023-04-15T12:44:46.172Z,16.50
2023-04-15T12:47:15.356Z,16.12
2023-04-15T12:49:41.996Z,15.85
2023-04-15T12:52:08.828Z,16.35
2023-04-15T12:54:36.055Z,16.30
2023-04-15T12:57:05.979Z,15.99
2023-04-15T12:59:33.206Z,15.67
2023-04-15T13:02:00.800Z,15.47
2023-04-15T13:04:30.525Z,15.98
2023-04-15T13:06:57.581Z,16.29
2023-04-15T13:09:24.060Z,15.91
2023-04-15T13:11:51.003Z,15.58
2023-04-15T13:14:17.694Z,15.29
2023-04-15T13:16:44.210Z,15.09
2023-04-15T13:19:10.682Z,15.04
2023-04-15T13:21:37.262Z,15.05
2023-04-15T13:24:04.831Z,15.05
2023-04-15T13:26:32.095Z,14.95
2023-04-15T13:28:59.759Z,14.74
2023-04-15T13:31:27.102Z,14.93
2023-04-15T13:33:53.562Z,14.86
2023-04-15T13:36:19.995Z,15.05
2023-04-15T13:38:47.124Z,14.83
2023-04-15T13:41:14.411Z,14.78
2023-04-15T13:43:41.469Z,14.65
2023-04-15T13:46:08.022Z,14.72
2023-04-15T13:48:34.479Z,14.59
2023-04-15T13:51:01.071Z,14.53
2023-04-15T13:53:37.631Z,14.57
2023-04-15T13:56:09.642Z,14.67
2023-04-15T13:58:37.391Z,14.42
2023-04-15T14:01:06.086Z,14.18
2023-04-15T14:03:33.667Z,14.34
2023-04-15T14:06:00.611Z,14.30
2023-04-15T14:08:27.040Z,14.27
2023-04-15T14:10:53.502Z,14.02
2023-04-15T14:13:19.945Z,13.79
2023-04-15T14:15:47.197Z,13.62
2023-04-15T14:18:13.658Z,13.54
2023-04-15T14:20:40.098Z,13.42
2023-04-15T14:23:06.753Z,13.38
2023-04-15T14:25:34.197Z,13.24
2023-04-15T14:28:01.666Z,13.25
2023-04-15T14:30:28.258Z,13.02
2023-04-15T14:32:54.761Z,13.02
2023-04-15T14:35:21.472Z,13.13
2023-04-15T14:37:47.889Z,13.25
2023-04-15T14:40:14.649Z,13.29
2023-04-15T14:42:41.114Z,13.26
2023-04-15T14:45:08.271Z,13.37
2023-04-15T14:47:34.827Z,13.23
2023-04-15T14:50:02.313Z,13.07
2023-04-15T14:52:28.868Z,12.93
2023-04-15T14:54:55.398Z,12.94
2023-04-15T14:57:21.833Z,12.92
2023-04-15T14:59:48.221Z,12.69
2023-04-15T15:02:17.290Z,12.50
2023-04-15T15:04:53.050Z,12.35
2023-04-15T15:07:19.637Z,12.41
2023-04-15T15:09:46.767Z,12.60
2023-04-15T15:12:13.297Z,12.76
2023-04-15T15:14:39.704Z,12.83
2023-04-15T15:17:06.305Z,12.85
2023-04-15T15:19:33.061Z,12.59
2023-04-15T15:21:59.477Z,12.24
2023-04-15T15:24:26.137Z,12.05
2023-04-15T15:26:52.638Z,12.02
2023-04-15T15:29:19.091Z,11.94
2023-04-15T15:31:45.623Z,11.93
2023-04-15T15:34:12.270Z,11.96
2023-04-15T15:36:38.701Z,11.90
2023-04-15T15:39:05.358Z,11.74
2023-04-15T15:41:33.267Z,11.47
2023-04-15T15:43:59.947Z,11.37
2023-04-15T15:46:28.256Z,11.37
2023-04-15T15:48:54.897Z,11.44
2023-04-15T15:51:21.331Z,11.42
2023-04-15T15:53:49.736Z,11.47
2023-04-15T15:56:16.319Z,11.51
2023-04-15T15:58:45.433Z,11.40
2023-04-15T16:01:12.238Z,11.27
2023-04-15T16:03:39.490Z,11.29
2023-04-15T16:06:06.028Z,11.36
2023-04-15T16:08:32.496Z,11.27
2023-04-15T16:10:58.985Z,11.15
2023-04-15T16:13:25.562Z,11.20
2023-04-15T16:15:52.005Z,11.03
2023-04-15T16:18:18.672Z,10.82
2023-04-15T16:20:45.200Z,10.86
2023-04-15T16:23:16.281Z,10.83
2023-04-15T16:25:44.402Z,10.76
2023-04-15T16:28:25.093Z,10.76
2023-04-15T16:30:52.708Z,10.72
2023-04-15T16:33:19.294Z,10.67
2023-04-15T16:35:45.783Z,10.63
2023-04-15T16:38:12.263Z,10.48
2023-04-15T16:40:38.789Z,10.38
2023-04-15T16:43:07.325Z,10.32
2023-04-15T16:45:33.974Z,10.25
2023-04-15T16:48:00.536Z,10.18
2023-04-15T16:50:27.229Z,10.16
2023-04-15T16:52:54.116Z,10.29
2023-04-15T16:55:20.615Z,10.24
2023-04-15T16:58:02.320Z,10.19
2023-04-15T17:00:31.477Z,10.08
2023-04-15T17:02:58.965Z,10.05
2023-04-15T17:05:27.519Z,10.04
2023-04-15T17:07:54.318Z,9.97
2023-04-15T17:10:20.996Z,9.88
2023-04-15T17:12:51.901Z,9.88
2023-04-15T17:15:19.642Z,9.81
2023-04-15T17:17:46.179Z,9.82
2023-04-15T17:20:12.630Z,9.79
2023-04-15T17:22:39.172Z,9.73
2023-04-15T17:25:06.124Z,9.69
2023-04-15T17:27:32.534Z,9.71
2023-04-15T17:29:59.032Z,9.74
2023-04-15T17:32:31.543Z,9.74
2023-04-15T17:34:58.223Z,9.78
2023-04-15T17:37:24.702Z,9.67
2023-04-15T17:39:52.058Z,9.63
2023-04-15T17:42:18.588Z,9.59
2023-04-15T17:44:45.822Z,9.54
2023-04-15T17:47:12.505Z,9.56
2023-04-15T17:49:39.017Z,9.60
2023-04-15T17:52:05.868Z,9.54
2023-04-15T17:54:32.436Z,9.50
2023-04-15T17:57:00.029Z,9.54
2023-04-15T17:59:27.619Z,9.46
2023-04-15T18:01:54.194Z,9.49
2023-04-15T18:04:21.754Z,9.60
2023-04-15T18:06:49.193Z,9.58
2023-04-15T18:09:15.690Z,9.56
2023-04-15T18:11:43.896Z,9.49
2023-04-15T18:14:11.320Z,9.51
2023-04-15T18:16:40.123Z,9.53
2023-04-15T18:19:06.679Z,9.45
2023-04-15T18:21:33.181Z,9.44
2023-04-15T18:23:59.674Z,9.44
2023-04-15T18:26:27.532Z,9.43
2023-04-15T18:28:55.002Z,9.45
2023-04-15T18:31:21.522Z,9.42
2023-04-15T18:33:48.082Z,9.35
2023-04-15T18:36:14.830Z,9.31
2023-04-15T18:38:41.406Z,9.31
2023-04-15T18:41:09.989Z,9.22
2023-04-15T18:43:36.689Z,9.18
2023-04-15T18:46:08.380Z,9.20
2023-04-15T18:48:34.906Z,9.13
2023-04-15T18:51:01.461Z,9.06
2023-04-15T18:53:28.084Z,8.96
2023-04-15T18:55:56.212Z,8.96
2023-04-15T18:58:22.666Z,8.95
2023-04-15T19:00:49.187Z,9.02
2023-04-15T19:03:15.897Z,8.93
2023-04-15T19:05:42.500Z,8.95
2023-04-15T19:08:09.076Z,8.93
2023-04-15T19:10:35.626Z,8.88
2023-04-15T19:13:04.232Z,8.86
2023-04-15T19:15:31.060Z,8.83
2023-04-15T19:17:57.475Z,8.79
2023-04-15T19:20:23.995Z,8.78
2023-04-15T19:22:50.705Z,8.81
2023-04-15T19:25:17.350Z,8.78
2023-04-15T19:27:43.834Z,8.80
2023-04-15T19:30:10.298Z,8.76
2023-04-15T19:32:36.835Z,8.71
2023-04-15T19:35:07.577Z,8.71
2023-04-15T19:37:35.273Z,8.73
2023-04-15T19:40:01.781Z,8.72
2023-04-15T19:42:28.433Z,8.72
2023-04-15T19:44:55.055Z,8.72
2023-04-15T19:47:22.442Z,8.67
2023-04-15T19:49:50.353Z,8.67
2023-04-15T19:52:18.654Z,8.66
2023-04-15T19:54:45.136Z,8.68
2023-04-15T19:57:11.746Z,8.65
2023-04-15T19:59:38.316Z,8.62
2023-04-15T20:02:07.136Z,8.64
2023-04-15T20:04:34.005Z,8.64
2023-04-15T20:07:00.573Z,8.63
2023-04-15T20:09:27.031Z,8.63
2023-04-15T20:12:10.040Z,8.61
2023-04-15T20:14:40.052Z,8.67
2023-04-15T20:17:06.502Z,8.69
2023-04-15T20:19:33.312Z,8.69
2023-04-15T20:21:59.766Z,8.71
2023-04-15T20:24:26.325Z,8.70
2023-04-15T20:26:52.734Z,8.67
2023-04-15T20:29:19.225Z,8.64
2023-04-15T20:31:45.820Z,8.67
2023-04-15T20:34:12.438Z,8.69
2023-04-15T20:36:38.951Z,8.71
2023-04-15T20:39:05.755Z,8.75
2023-04-15T20:41:32.389Z,8.71
2023-04-15T20:43:58.781Z,8.71
2023-04-15T20:46:27.318Z,8.70
2023-04-15T20:48:54.222Z,8.68
2023-04-15T20:51:20.796Z,8.68
2023-04-15T20:53:47.266Z,8.68
2023-04-15T20:56:13.716Z,8.67
2023-04-15T20:58:40.336Z,8.68
2023-04-15T21:01:06.814Z,8.68
2023-04-15T21:03:33.697Z,8.65
2023-04-15T21:06:00.414Z,8.65
2023-04-15T21:08:29.598Z,8.63
2023-04-15T21:10:56.801Z,8.65
2023-04-15T21:13:23.937Z,8.67
2023-04-15T21:15:53.319Z,8.70
2023-04-15T21:18:21.218Z,8.67
2023-04-15T21:20:56.491Z,8.67
2023-04-15T21:23:23.005Z,8.65
2023-04-15T21:25:49.411Z,8.62
2023-04-15T21:28:15.844Z,8.63
2023-04-15T21:30:42.338Z,8.60
2023-04-15T21:33:09.020Z,8.59
2023-04-15T21:35:35.620Z,8.58
2023-04-15T21:38:02.178Z,8.56
2023-04-15T21:40:29.647Z,8.58
2023-04-15T21:42:56.171Z,8.56
2023-04-15T21:45:22.627Z,8.56
2023-04-15T21:48:01.249Z,8.53
2023-04-15T21:50:36.760Z,8.53
2023-04-15T21:53:04.042Z,8.54
2023-04-15T21:55:30.540Z,8.54
2023-04-15T21:57:58.003Z,8.54
2023-04-15T22:00:24.796Z,8.54
2023-04-15T22:02:51.785Z,8.56
2023-04-15T22:05:18.383Z,8.60
2023-04-15T22:07:44.958Z,8.59
2023-04-15T22:10:11.669Z,8.58
2023-04-15T22:12:41.752Z,8.58
2023-04-15T22:15:08.676Z,8.63
2023-04-15T22:17:35.326Z,8.65
2023-04-15T22:20:02.321Z,8.64
2023-04-15T22:22:37.724Z,8.63
2023-04-15T22:25:11.111Z,8.67
2023-04-15T22:27:37.531Z,8.65
2023-04-15T22:30:04.966Z,8.61
2023-04-15T22:32:31.559Z,8.60
2023-04-15T22:34:58.070Z,8.62
2023-04-15T22:37:24.648Z,8.61
2023-04-15T22:39:51.772Z,8.60
2023-04-15T22:42:18.279Z,8.58
2023-04-15T22:44:44.686Z,8.62
2023-04-15T22:47:11.227Z,8.66
2023-04-15T22:49:37.737Z,8.66
2023-04-15T22:52:04.338Z,8.65
2023-04-15T22:54:31.121Z,8.65
2023-04-15T22:56:57.853Z,8.66
2023-04-15T22:59:24.495Z,8.67
2023-04-15T23:01:51.127Z,8.70
2023-04-15T23:04:27.464Z,8.70
2023-04-15T23:06:54.582Z,8.74
2023-04-15T23:09:21.450Z,8.75
2023-04-15T23:11:47.950Z,8.74
2023-04-15T23:14:14.347Z,8.71
2023-04-15T23:16:40.894Z,8.72
2023-04-15T23:19:07.958Z,8.67
2023-04-15T23:21:34.789Z,8.64
2023-04-15T23:24:01.711Z,8.63
2023-04-15T23:26:28.271Z,8.62
2023-04-15T23:28:55.661Z,8.63
2023-04-15T23:31:22.150Z,8.64
2023-04-15T23:33:48.613Z,8.65
2023-04-15T23:36:15.125Z,8.68
2023-04-15T23:38:42.056Z,8.67
2023-04-15T23:41:09.834Z,8.69
2023-04-15T23:43:36.561Z,8.68
2023-04-15T23:46:03.348Z,8.65
2023-04-15T23:48:30.084Z,8.62
2023-04-15T23:50:56.823Z,8.63
2023-04-15T23:53:23.591Z,8.63
2023-04-15T23:55:50.014Z,8.64
2023-04-15T23:58:16.433Z,8.60
